Time;durP1;ratioP1;P1;durP2;ratioP2;P2;SDS_P1;SDS_P2;PMS_P1;PMS_P2;Temp;Humidity;BMP_temperature;BMP_pressure;BME280_temperature;BME280_humidity;BME280_pressure;Samples;Min_cycle;Max_cycle;Signal;HPM_P1;HPM_P2
2023/12/25 00:00:49;;;;;;;1.40;1.30;;;;;;;9.27;100.00;97717.84;4873874;29;20136;-82
2023/12/25 00:03:14;;;;;;;1.67;1.20;;;;;;;9.10;100.00;97700.88;4886395;29;20029;-82
2023/12/25 00:05:40;;;;;;;3.47;1.67;;;;;;;9.27;100.00;97744.69;4881417;29;20037;-82
2023/12/25 00:08:06;;;;;;;2.10;1.90;;;;;;;9.18;100.00;97719.34;4915391;29;20520;-82
2023/12/25 00:10:32;;;;;;;2.28;1.80;;;;;;;9.23;100.00;97720.69;4915528;29;20040;-82
2023/12/25 00:12:57;;;;;;;3.42;2.58;;;;;;;9.29;100.00;97726.38;4915482;29;20040;-83
2023/12/25 00:15:22;;;;;;;3.72;2.15;;;;;;;9.07;100.00;97696.75;4915264;29;20185;-83
2023/12/25 00:17:48;;;;;;;3.40;2.97;;;;;;;9.11;100.00;97697.38;4899549;29;20036;-82
2023/12/25 00:20:13;;;;;;;3.75;3.38;;;;;;;9.33;100.00;97731.25;4915462;29;20040;-82
2023/12/25 00:22:38;;;;;;;2.75;2.03;;;;;;;9.29;100.00;97719.41;4915671;29;20048;-82
2023/12/25 00:25:04;;;;;;;3.65;3.35;;;;;;;9.40;100.00;97734.25;4899429;29;20036;-83
2023/12/25 00:27:29;;;;;;;2.30;2.10;;;;;;;9.24;100.00;97716.31;4915003;29;20067;-83
2023/12/25 00:29:55;;;;;;;1.75;1.40;;;;;;;9.36;100.00;97744.03;4915167;29;20184;-83
2023/12/25 00:32:20;;;;;;;2.20;1.67;;;;;;;9.32;100.00;97731.38;4914955;29;20542;-83
2023/12/25 00:34:45;;;;;;;3.00;2.70;;;;;;;9.29;100.00;97719.41;4915012;29;20044;-83
2023/12/25 00:37:11;;;;;;;1.40;1.30;;;;;;;9.38;100.00;97728.31;4914863;29;20052;-83
2023/12/25 00:39:36;;;;;;;1.70;1.60;;;;;;;9.19;100.00;97695.06;4916563;29;20048;-82
2023/12/25 00:42:01;;;;;;;2.20;1.63;;;;;;;9.42;100.00;97727.97;4917519;29;20055;-82
2023/12/25 00:44:27;;;;;;;1.55;1.42;;;;;;;9.48;100.00;97730.16;4917212;29;20028;-82
2023/12/25 00:46:52;;;;;;;2.60;1.20;;;;;;;9.17;100.00;97683.94;4917537;29;20107;-83
2023/12/25 00:49:19;;;;;;;1.55;1.20;;;;;;;9.48;100.00;97730.16;4917206;29;20027;-82
2023/12/25 00:51:44;;;;;;;1.50;1.40;;;;;;;9.61;100.00;97750.03;4917354;29;20040;-82
2023/12/25 00:54:10;;;;;;;1.55;1.45;;;;;;;9.54;100.00;97728.03;4916288;29;20020;-82
2023/12/25 00:56:35;;;;;;;2.20;2.00;;;;;;;9.52;100.00;97719.50;4900407;29;20030;-83
2023/12/25 00:59:00;;;;;;;1.73;1.63;;;;;;;9.64;100.00;97742.81;4917305;29;20625;-83
2023/12/25 01:01:26;;;;;;;2.95;2.55;;;;;;;9.32;100.00;97692.41;4916772;29;20095;-83
2023/12/25 01:03:51;;;;;;;4.88;3.40;;;;;;;9.61;100.00;97724.88;4916863;29;20028;-82
2023/12/25 01:06:16;;;;;;;1.58;1.48;;;;;;;9.57;100.00;97717.44;4916871;29;20052;-82
2023/12/25 01:08:42;;;;;;;2.08;1.52;;;;;;;9.80;100.00;97757.31;4917055;29;20087;-82
2023/12/25 01:11:07;;;;;;;1.40;1.30;;;;;;;9.74;100.00;97736.03;4917071;29;20119;-82
2023/12/25 01:13:32;;;;;;;1.10;0.98;;;;;;;9.85;100.00;97742.19;4916784;29;20137;-82
2023/12/25 01:15:58;;;;;;;1.05;1.00;;;;;;;9.75;100.00;97729.88;4899863;29;20140;-82
2023/12/25 01:18:23;;;;;;;1.23;1.13;;;;;;;9.89;100.00;97743.63;4916402;29;20035;-82
2023/12/25 01:20:49;;;;;;;1.50;1.00;;;;;;;9.82;100.00;97730.28;4916854;29;20097;-82
2023/12/25 01:23:14;;;;;;;1.58;1.48;;;;;;;9.99;100.00;97757.63;4916620;29;20028;-82
2023/12/25 01:25:40;;;;;;;1.30;1.20;;;;;;;10.00;100.00;97748.88;4916733;29;20110;-82
2023/12/25 01:28:05;;;;;;;1.20;1.10;;;;;;;9.85;100.00;97711.00;4899741;29;20028;-82
2023/12/25 01:30:30;;;;;;;1.17;0.98;;;;;;;10.08;100.00;97756.09;4899367;29;20040;-82
2023/12/25 01:32:56;;;;;;;1.00;0.90;;;;;;;10.09;100.00;97742.97;4899637;29;20474;-82
2023/12/25 01:35:21;;;;;;;0.93;0.88;;;;;;;10.08;100.00;97738.72;4916173;29;20098;-82
2023/12/25 01:37:46;;;;;;;0.90;0.82;;;;;;;10.14;100.00;97753.03;4899731;29;20032;-82
2023/12/25 01:40:12;;;;;;;1.27;1.02;;;;;;;10.07;100.00;97750.06;4916377;29;20035;-82
2023/12/25 01:42:42;;;;;;;1.60;1.02;;;;;;;10.10;100.00;97751.59;4899518;29;20055;-82
2023/12/25 01:45:08;;;;;;;1.85;0.93;;;;;;;10.07;100.00;97738.81;4916478;29;20066;-82
2023/12/25 01:47:33;;;;;;;0.75;0.75;;;;;;;10.08;100.00;97748.31;4916254;29;20029;-82
2023/12/25 01:50:00;;;;;;;2.88;0.73;;;;;;;10.22;100.00;97782.72;4916150;29;20039;-82
2023/12/25 01:52:27;;;;;;;0.80;0.80;;;;;;;10.22;100.00;97774.94;4916248;29;20075;-82
2023/12/25 01:54:53;;;;;;;2.63;0.93;;;;;;;10.17;100.00;97755.41;4916442;29;20039;-82
2023/12/25 01:57:19;;;;;;;1.17;0.80;;;;;;;10.24;100.00;97788.69;4916205;29;20032;-82
2023/12/25 01:59:44;;;;;;;0.90;0.80;;;;;;;10.15;100.00;97778.09;4916018;29;20414;-82
2023/12/25 02:02:10;;;;;;;1.33;0.90;;;;;;;10.33;100.00;97821.00;4916641;29;20020;-82
2023/12/25 02:04:35;;;;;;;1.63;1.13;;;;;;;10.32;100.00;97826.31;4916182;29;20375;-83
2023/12/25 02:07:01;;;;;;;1.00;0.90;;;;;;;10.36;100.00;97820.75;4919712;29;20024;-82
2023/12/25 02:09:28;;;;;;;1.35;1.00;;;;;;;10.34;100.00;97819.22;4920101;29;20529;-82
2023/12/25 02:11:53;;;;;;;1.10;0.90;;;;;;;10.29;100.00;97810.94;4920126;29;20651;-82
2023/12/25 02:14:18;;;;;;;2.45;1.33;;;;;;;10.42;100.00;97816.88;4902907;29;20032;-82
2023/12/25 02:16:45;;;;;;;1.40;0.80;;;;;;;10.24;100.00;97803.44;4920137;29;20091;-83
2023/12/25 02:19:34;;;;;;;1.00;0.80;;;;;;;10.47;100.00;97835.56;4920053;29;20063;-82
2023/12/25 02:21:59;;;;;;;0.80;0.80;;;;;;;10.07;100.00;97794.28;4903013;29;20023;-82
2023/12/25 02:24:29;;;;;;;0.80;0.80;;;;;;;10.47;100.00;97879.81;4919791;29;20490;-82
2023/12/25 02:26:54;;;;;;;1.08;0.98;;;;;;;10.40;100.00;97856.00;4920244;29;20092;-82
2023/12/25 02:29:20;;;;;;;1.58;0.90;;;;;;;10.45;100.00;97864.34;4919616;29;20422;-82
2023/12/25 02:31:48;;;;;;;1.45;1.00;;;;;;;10.20;100.00;97822.84;4919858;29;20036;-82
2023/12/25 02:34:14;;;;;;;1.90;0.82;;;;;;;10.29;100.00;97840.38;4919562;29;20040;-83
2023/12/25 02:36:40;;;;;;;0.77;0.77;;;;;;;10.29;100.00;97857.78;4888598;29;20496;-82
2023/12/25 02:39:05;;;;;;;1.55;1.35;;;;;;;10.44;100.00;97909.50;4900529;29;20033;-82
2023/12/25 02:41:30;;;;;;;1.67;1.10;;;;;;;10.40;100.00;97923.69;4900638;29;20024;-82
2023/12/25 02:43:56;;;;;;;2.97;1.10;;;;;;;10.32;100.00;97899.16;4883869;29;20075;-82
2023/12/25 02:46:21;;;;;;;2.45;0.90;;;;;;;10.26;100.00;97907.44;4900509;29;20033;-82
2023/12/25 02:48:47;;;;;;;1.00;0.63;;;;;;;10.21;100.00;97913.75;4900588;29;20039;-82
2023/12/25 02:51:12;;;;;;;1.73;1.20;;;;;;;10.19;100.00;97907.81;4900634;29;20067;-83
2023/12/25 02:53:37;;;;;;;0.90;0.90;;;;;;;10.14;100.00;97930.75;4883409;29;20024;-82
2023/12/25 02:56:03;;;;;;;1.48;1.17;;;;;;;10.00;100.00;97877.13;4900301;29;20028;-82
2023/12/25 02:58:28;;;;;;;1.02;0.93;;;;;;;9.88;100.00;97906.63;4900237;29;20029;-82
2023/12/25 03:00:53;;;;;;;3.50;1.95;;;;;;;9.94;100.00;97910.53;4900413;29;20045;-83
2023/12/25 03:03:19;;;;;;;1.20;1.10;;;;;;;10.00;100.00;97930.94;4900272;29;20076;-82
2023/12/25 03:05:44;;;;;;;0.80;0.80;;;;;;;9.99;100.00;97957.88;4900389;29;20040;-82
2023/12/25 03:08:09;;;;;;;1.88;1.20;;;;;;;9.73;100.00;97902.50;4883509;29;20055;-82
2023/12/25 03:10:35;;;;;;;4.70;1.52;;;;;;;9.90;100.00;97946.38;4883120;29;20095;-82
2023/12/25 03:13:00;;;;;;;2.78;1.10;;;;;;;9.86;100.00;97942.31;4900287;29;20024;-83
2023/12/25 03:15:25;;;;;;;3.72;1.92;;;;;;;9.70;100.00;97915.75;4899883;29;20440;-82
2023/12/25 03:17:51;;;;;;;1.88;1.33;;;;;;;9.87;100.00;97950.94;4882248;29;20036;-82
2023/12/25 03:20:16;;;;;;;1.25;1.10;;;;;;;9.72;100.00;97924.25;4900168;29;20423;-82
2023/12/25 03:22:41;;;;;;;2.63;1.33;;;;;;;9.87;100.00;97937.94;4883174;29;20393;-82
2023/12/25 03:25:07;;;;;;;1.75;1.48;;;;;;;9.65;100.00;97918.66;4900123;29;20029;-83
2023/12/25 03:27:32;;;;;;;3.95;1.90;;;;;;;9.83;100.00;97939.94;4899838;29;20036;-82
2023/12/25 03:29:57;;;;;;;2.65;1.13;;;;;;;9.64;100.00;97914.38;4883009;29;20387;-82
2023/12/25 03:32:23;;;;;;;1.63;1.33;;;;;;;9.85;100.00;97940.63;4899975;29;20493;-81
2023/12/25 03:34:49;;;;;;;1.92;1.45;;;;;;;9.73;100.00;97929.34;4899793;29;20032;-82
2023/12/25 03:37:17;;;;;;;3.53;1.90;;;;;;;9.86;100.00;97957.94;4918544;29;20056;-81
2023/12/25 03:39:43;;;;;;;2.05;1.13;;;;;;;9.90;100.00;97955.91;4915299;29;20112;-82
2023/12/25 03:42:08;;;;;;;2.95;1.67;;;;;;;9.84;100.00;97958.97;4899677;29;20103;-81
2023/12/25 03:44:33;;;;;;;1.10;1.00;;;;;;;9.87;100.00;97945.75;4899464;29;20056;-81
2023/12/25 03:46:59;;;;;;;1.45;0.90;;;;;;;9.84;100.00;97938.97;4899629;29;20043;-81
2023/12/25 03:49:24;;;;;;;0.90;0.90;;;;;;;9.90;100.00;97937.72;4899289;29;20025;-81
2023/12/25 03:51:50;;;;;;;1.02;0.93;;;;;;;9.93;100.00;97947.91;4899781;29;20580;-81
2023/12/25 03:54:15;;;;;;;1.95;1.00;;;;;;;9.75;100.00;97919.66;4899151;29;20064;-81
2023/12/25 03:56:40;;;;;;;0.98;0.90;;;;;;;9.86;100.00;97950.13;4899249;29;20112;-81
2023/12/25 03:59:06;;;;;;;2.38;0.75;;;;;;;9.84;100.00;97932.97;4899495;29;20108;-81
2023/12/25 04:01:31;;;;;;;1.10;0.90;;;;;;;9.90;100.00;97946.38;4899447;29;20067;-82
2023/12/25 04:03:56;;;;;;;1.17;0.80;;;;;;;9.72;100.00;97916.44;4899301;29;20092;-81
2023/12/25 04:06:23;;;;;;;0.70;0.70;;;;;;;9.90;100.00;97938.56;4899072;29;20029;-81
2023/12/25 04:08:49;;;;;;;1.30;0.80;;;;;;;9.76;100.00;97915.28;4899146;29;20476;-81
2023/12/25 04:11:21;;;;;;;1.35;0.80;;;;;;;9.72;100.00;97917.28;4899237;29;20096;-81
2023/12/25 04:13:48;;;;;;;1.55;1.00;;;;;;;9.88;100.00;97937.81;4898928;29;20450;-81
2023/12/25 04:16:26;;;;;;;1.05;0.90;;;;;;;9.82;100.00;97925.28;4899096;29;20100;-81
2023/12/25 04:18:52;;;;;;;0.70;0.70;;;;;;;9.79;100.00;97917.69;4899063;29;20063;-81
2023/12/25 04:21:30;;;;;;;2.55;1.17;;;;;;;9.94;100.00;97944.34;4898955;29;20040;-81
2023/12/25 04:23:56;;;;;;;0.95;0.95;;;;;;;10.02;100.00;97943.81;4898936;29;20112;-82
2023/12/25 04:26:23;;;;;;;2.35;1.33;;;;;;;9.96;100.00;97942.50;4898972;29;20037;-81
2023/12/25 04:28:49;;;;;;;1.45;1.05;;;;;;;9.78;100.00;97915.22;4898810;29;20036;-81
2023/12/25 04:31:16;;;;;;;1.52;1.42;;;;;;;10.02;100.00;97951.63;4882003;29;20398;-81
2023/12/25 04:33:42;;;;;;;1.70;1.15;;;;;;;9.95;100.00;97936.47;4898539;29;20028;-81
2023/12/25 04:36:08;;;;;;;2.08;1.17;;;;;;;9.93;100.00;97937.50;4908540;29;20126;-81
2023/12/25 04:38:33;;;;;;;0.90;0.90;;;;;;;9.99;100.00;97937.06;4900550;29;20035;-81
2023/12/25 04:40:59;;;;;;;1.13;1.02;;;;;;;9.94;100.00;97942.59;4900347;29;20103;-81
2023/12/25 04:43:25;;;;;;;0.98;0.85;;;;;;;9.85;100.00;97924.22;4900051;29;20031;-81
2023/12/25 04:45:50;;;;;;;1.05;0.95;;;;;;;9.96;100.00;97937.28;4917158;29;20028;-82
2023/12/25 04:48:16;;;;;;;1.50;1.20;;;;;;;10.08;100.00;97956.41;4900302;29;20031;-81
2023/12/25 04:50:42;;;;;;;1.27;1.05;;;;;;;10.03;100.00;97967.13;4916712;29;20401;-82
2023/12/25 04:53:08;;;;;;;2.45;1.38;;;;;;;10.05;100.00;97965.22;4917305;29;20024;-82
2023/12/25 04:55:33;;;;;;;1.10;1.00;;;;;;;10.03;100.00;97972.34;4917334;29;20068;-81
2023/12/25 04:57:59;;;;;;;1.42;1.10;;;;;;;10.09;100.00;97977.09;4917138;29;20031;-81
2023/12/25 05:00:24;;;;;;;1.70;0.70;;;;;;;10.08;100.00;97975.44;4899947;29;20043;-81
2023/12/25 05:02:49;;;;;;;1.73;1.00;;;;;;;10.13;100.00;97983.72;4917165;29;20079;-82
2023/12/25 05:05:15;;;;;;;1.80;1.13;;;;;;;9.93;100.00;97964.34;4917019;29;20080;-82
2023/12/25 05:07:40;;;;;;;0.98;0.98;;;;;;;10.20;100.00;97994.53;4899570;29;20046;-82
2023/12/25 05:10:06;;;;;;;1.98;1.05;;;;;;;10.12;100.00;97995.09;4899868;29;20084;-81
2023/12/25 05:12:31;;;;;;;3.67;1.30;;;;;;;10.16;100.00;97993.94;4916810;29;20030;-81
2023/12/25 05:14:57;;;;;;;1.08;0.90;;;;;;;10.08;100.00;97970.22;4895266;29;20514;-82
2023/12/25 05:17:22;;;;;;;0.85;0.85;;;;;;;9.95;100.00;97949.47;4895498;29;20044;-82
2023/12/25 05:19:47;;;;;;;1.10;0.90;;;;;;;10.15;100.00;97975.81;4895186;29;20044;-81
2023/12/25 05:22:13;;;;;;;1.10;0.70;;;;;;;10.09;100.00;97984.06;4895506;29;20096;-81
2023/12/25 05:24:39;;;;;;;2.60;0.75;;;;;;;9.88;100.00;97934.41;4895139;29;20033;-82
2023/12/25 05:27:04;;;;;;;1.13;1.00;;;;;;;9.89;100.00;97928.25;4895331;29;20044;-81
2023/12/25 05:29:29;;;;;;;1.05;0.77;;;;;;;10.06;100.00;97974.69;4894956;29;20072;-82
2023/12/25 05:31:55;;;;;;;0.80;0.80;;;;;;;9.96;100.00;97952.91;4895322;29;20033;-81
2023/12/25 05:34:20;;;;;;;1.48;1.08;;;;;;;9.82;100.00;97927.03;4895233;29;20041;-82
2023/12/25 05:36:45;;;;;;;1.02;0.80;;;;;;;9.86;100.00;97934.53;4894929;29;20065;-81
2023/12/25 05:39:11;;;;;;;0.95;0.85;;;;;;;9.88;100.00;97952.59;4895490;29;20049;-82
2023/12/25 05:41:36;;;;;;;1.33;1.02;;;;;;;9.96;100.00;97971.09;4894629;29;20037;-81
2023/12/25 05:44:02;;;;;;;0.85;0.77;;;;;;;9.97;100.00;97973.56;4895426;29;20498;-81
2023/12/25 05:46:28;;;;;;;2.35;1.10;;;;;;;9.97;100.00;97972.75;4894942;29;20052;-81
2023/12/25 05:48:53;;;;;;;1.58;0.90;;;;;;;9.94;100.00;97984.22;4895215;29;20040;-81
2023/12/25 05:51:18;;;;;;;0.75;0.73;;;;;;;9.86;100.00;97955.31;4896636;29;20419;-82
2023/12/25 05:53:44;;;;;;;2.50;1.10;;;;;;;9.96;100.00;97964.13;4899404;29;20036;-82
2023/12/25 05:56:09;;;;;;;1.30;1.20;;;;;;;9.79;100.00;97961.06;4916662;29;20036;-81
2023/12/25 05:58:34;;;;;;;1.42;0.82;;;;;;;9.95;100.00;97998.88;4916051;29;20649;-81
2023/12/25 06:01:00;;;;;;;1.15;0.88;;;;;;;9.95;100.00;97980.66;4916551;29;20092;-81
2023/12/25 06:03:26;;;;;;;0.95;0.88;;;;;;;9.77;100.00;97953.34;4926775;29;20431;-82
2023/12/25 06:05:52;;;;;;;1.30;1.20;;;;;;;9.84;100.00;97957.19;4926615;29;20084;-82
2023/12/25 06:08:17;;;;;;;0.80;0.80;;;;;;;9.94;100.00;97979.03;4908786;29;20040;-82
2023/12/25 06:10:43;;;;;;;1.25;0.88;;;;;;;9.73;100.00;97960.56;4918433;29;20028;-81
2023/12/25 06:13:08;;;;;;;1.13;0.90;;;;;;;9.61;100.00;97935.41;4916447;29;20024;-82
2023/12/25 06:15:33;;;;;;;1.40;1.00;;;;;;;9.74;100.00;97954.41;4899184;29;20438;-81
2023/12/25 06:17:59;;;;;;;1.20;1.10;;;;;;;9.68;100.00;97946.19;4916333;29;20481;-81
2023/12/25 06:20:25;;;;;;;1.08;0.90;;;;;;;9.70;100.00;97960.75;4916315;29;20039;-82
2023/12/25 06:22:50;;;;;;;0.85;0.80;;;;;;;9.82;100.00;97984.22;4915981;29;20378;-81
2023/12/25 06:25:16;;;;;;;0.60;0.60;;;;;;;9.75;100.00;97982.06;4899045;29;20024;-81
2023/12/25 06:27:41;;;;;;;1.20;0.88;;;;;;;9.66;100.00;97956.72;4916240;29;20064;-81
2023/12/25 06:30:07;;;;;;;0.80;0.80;;;;;;;9.68;100.00;97956.59;4916161;29;20056;-81
2023/12/25 06:32:32;;;;;;;1.00;1.00;;;;;;;9.66;100.00;97961.91;4915962;29;20032;-81
2023/12/25 06:34:57;;;;;;;1.23;1.00;;;;;;;9.69;100.00;97961.72;4915609;29;20538;-81
2023/12/25 06:37:23;;;;;;;0.75;0.75;;;;;;;9.72;100.00;97982.28;4899122;29;20115;-82
2023/12/25 06:39:49;;;;;;;1.00;0.93;;;;;;;9.95;100.00;98000.66;4915851;29;20059;-81
2023/12/25 06:42:15;;;;;;;2.47;1.58;;;;;;;9.94;100.00;98010.22;4915984;29;20024;-81
2023/12/25 06:44:40;;;;;;;2.70;1.00;;;;;;;9.69;100.00;97966.03;4915761;29;20075;-81
2023/12/25 06:47:06;;;;;;;0.60;0.60;;;;;;;9.73;100.00;97959.69;4898909;29;20028;-81
2023/12/25 06:49:31;;;;;;;1.25;0.98;;;;;;;9.93;100.00;97994.72;4915734;29;20071;-81
2023/12/25 06:51:57;;;;;;;1.85;1.00;;;;;;;10.00;100.00;98009.78;4917381;29;20028;-82
2023/12/25 06:54:22;;;;;;;0.90;0.80;;;;;;;9.88;100.00;97984.63;4919613;29;20025;-82
2023/12/25 06:56:48;;;;;;;1.30;1.05;;;;;;;9.99;100.00;98007.31;4919312;29;20036;-82
2023/12/25 06:59:13;;;;;;;1.27;1.00;;;;;;;9.98;100.00;98010.81;4919416;29;20083;-82
2023/12/25 07:01:39;;;;;;;1.92;1.10;;;;;;;10.09;100.00;98025.69;4919467;29;20032;-81
2023/12/25 07:04:04;;;;;;;1.30;0.90;;;;;;;9.86;100.00;97993.47;4919323;29;20040;-82
2023/12/25 07:06:30;;;;;;;1.10;0.82;;;;;;;9.90;100.00;97994.91;4902329;29;20075;-81
2023/12/25 07:08:55;;;;;;;0.85;0.75;;;;;;;10.03;100.00;98024.34;4919003;29;20059;-82
2023/12/25 07:11:21;;;;;;;1.38;0.80;;;;;;;10.07;100.00;98028.41;4919279;29;20024;-81
2023/12/25 07:13:47;;;;;;;0.80;0.80;;;;;;;10.05;100.00;98035.47;4918971;29;20024;-81
2023/12/25 07:16:22;;;;;;;1.20;0.73;;;;;;;10.03;100.00;98033.91;4902232;29;20364;-81
2023/12/25 07:18:50;;;;;;;1.77;1.05;;;;;;;10.04;100.00;98043.38;4918799;29;20035;-81
2023/12/25 07:21:15;;;;;;;1.55;0.70;;;;;;;9.84;100.00;98008.38;4919053;29;20055;-81
2023/12/25 07:23:41;;;;;;;1.60;1.08;;;;;;;10.06;100.00;98031.09;4918855;29;20071;-81
2023/12/25 07:26:07;;;;;;;1.40;0.98;;;;;;;10.06;100.00;98041.50;4918985;29;20462;-81
2023/12/25 07:28:32;;;;;;;0.95;0.95;;;;;;;10.02;100.00;98042.66;4919208;29;20032;-81
2023/12/25 07:30:57;;;;;;;2.53;0.70;;;;;;;9.86;100.00;98033.34;4918769;29;20462;-81
2023/12/25 07:33:23;;;;;;;1.40;1.02;;;;;;;10.07;100.00;98066.56;4918904;29;20043;-81
2023/12/25 07:35:48;;;;;;;1.30;1.10;;;;;;;9.84;100.00;98026.56;4918475;29;20059;-81
2023/12/25 07:38:14;;;;;;;1.20;1.08;;;;;;;9.92;100.00;98043.28;4918903;29;20045;-82
2023/12/25 07:40:39;;;;;;;1.73;1.40;;;;;;;9.82;100.00;98026.69;4918449;29;20438;-81
2023/12/25 07:43:07;;;;;;;1.42;1.20;;;;;;;9.80;100.00;98032.91;4901589;29;20020;-81
2023/12/25 07:45:32;;;;;;;2.53;1.40;;;;;;;9.82;100.00;98041.41;4918592;29;20119;-81
2023/12/25 07:47:58;;;;;;;1.50;1.17;;;;;;;9.94;100.00;98063.97;4918306;29;20104;-81
2023/12/25 07:50:23;;;;;;;2.20;1.23;;;;;;;9.87;100.00;98034.16;4918513;29;20040;-81
2023/12/25 07:52:49;;;;;;;1.50;1.10;;;;;;;9.78;100.00;98033.03;4918144;29;20111;-80
2023/12/25 07:55:15;;;;;;;1.42;1.17;;;;;;;9.99;100.00;98052.34;4918336;29;20028;-81
2023/12/25 07:57:41;;;;;;;2.88;1.15;;;;;;;9.83;100.00;98030.09;4918251;29;20070;-81
2023/12/25 08:00:07;;;;;;;2.28;1.40;;;;;;;9.89;100.00;98043.50;4918156;29;20032;-82
2023/12/25 08:02:32;;;;;;;1.90;1.08;;;;;;;10.06;100.00;98083.94;4901260;29;20031;-81
2023/12/25 08:04:58;;;;;;;1.30;1.17;;;;;;;9.91;100.00;98051.22;4918315;29;20040;-82
2023/12/25 08:07:23;;;;;;;1.20;1.10;;;;;;;9.93;100.00;98078.75;4918171;29;20028;-81
2023/12/25 08:09:49;;;;;;;1.63;1.10;;;;;;;9.95;100.00;98091.69;4918106;29;20088;-81
2023/12/25 08:12:15;;;;;;;1.30;1.20;;;;;;;9.78;100.00;98060.81;4918083;29;20060;-81
2023/12/25 08:14:40;;;;;;;1.92;0.93;;;;;;;9.98;100.00;98102.69;4917885;29;20036;-81
2023/12/25 08:17:07;;;;;;;1.13;1.00;;;;;;;9.97;100.00;98101.03;4918014;29;20047;-81
2023/12/25 08:19:32;;;;;;;1.73;1.15;;;;;;;9.97;100.00;98100.19;4917920;29;20039;-81
2023/12/25 08:22:17;;;;;;;1.77;1.08;;;;;;;10.04;100.00;98108.41;4918047;29;20028;-82
2023/12/25 08:24:43;;;;;;;2.30;0.93;;;;;;;9.99;100.00;98099.16;4861840;29;20463;-81
2023/12/25 08:27:08;;;;;;;1.20;1.15;;;;;;;10.03;100.00;98101.53;4877481;29;20033;-81
2023/12/25 08:29:33;;;;;;;1.83;1.02;;;;;;;9.94;100.00;98095.19;4877625;29;20061;-81
2023/12/25 08:32:00;;;;;;;1.48;1.20;;;;;;;9.97;100.00;98088.00;4877504;29;20029;-81
2023/12/25 08:34:25;;;;;;;2.42;1.20;;;;;;;9.96;100.00;98091.56;4877508;29;20117;-81
2023/12/25 08:36:52;;;;;;;1.15;1.05;;;;;;;9.98;100.00;98079.25;4877240;29;20523;-81
2023/12/25 08:39:17;;;;;;;1.33;1.10;;;;;;;10.20;100.00;98122.03;4877317;29;20582;-81
2023/12/25 08:41:42;;;;;;;2.13;1.45;;;;;;;10.08;100.00;98102.06;4877281;29;20092;-80
2023/12/25 08:44:08;;;;;;;2.25;1.52;;;;;;;9.84;100.00;98061.19;4877480;29;20392;-81
2023/12/25 08:46:34;;;;;;;1.77;1.40;;;;;;;9.99;100.00;98077.53;4862119;29;20518;-81
2023/12/25 08:48:59;;;;;;;1.08;1.08;;;;;;;10.14;100.00;98122.44;4861970;29;20033;-81
2023/12/25 08:51:25;;;;;;;1.70;1.48;;;;;;;10.25;100.00;98151.19;4861995;29;20044;-80
2023/12/25 08:53:51;;;;;;;2.70;1.50;;;;;;;10.11;100.00;98118.28;4861880;29;20029;-81
2023/12/25 08:56:24;;;;;;;1.10;1.00;;;;;;;10.10;100.00;98116.59;4907073;29;20066;-80
2023/12/25 08:58:49;;;;;;;3.90;1.70;;;;;;;10.24;100.00;98137.34;4917018;29;20028;-81
2023/12/25 09:01:15;;;;;;;2.28;1.30;;;;;;;10.30;100.00;98163.88;4917527;29;20146;-81
2023/12/25 09:03:42;;;;;;;5.80;2.50;;;;;;;10.11;100.00;98131.31;4917273;29;20024;-80
2023/12/25 09:06:07;;;;;;;1.98;1.30;;;;;;;10.08;100.00;98121.09;4917551;29;20036;-80
2023/12/25 09:08:32;;;;;;;5.32;2.53;;;;;;;10.15;100.00;98142.31;4900259;29;20549;-80
2023/12/25 09:10:58;;;;;;;33.72;28.85;;;;;;;10.23;100.00;98173.84;4917173;29;20036;-81
2023/12/25 09:13:23;;;;;;;4.85;3.03;;;;;;;10.26;100.00;98167.63;4918324;29;20087;-81
2023/12/25 09:15:48;;;;;;;3.58;3.22;;;;;;;10.34;100.00;98181.78;4915819;29;20529;-81
2023/12/25 09:18:14;;;;;;;3.90;3.33;;;;;;;10.35;100.00;98156.59;4917010;29;20148;-81
2023/12/25 09:20:39;;;;;;;7.15;6.45;;;;;;;10.47;100.00;98173.94;4917062;29;20036;-81
2023/12/25 09:23:05;;;;;;;9.15;6.90;;;;;;;10.45;100.00;98171.47;4917153;29;20032;-81
2023/12/25 09:25:30;;;;;;;6.68;4.15;;;;;;;10.41;100.00;98157.00;4917207;29;20423;-81
2023/12/25 09:27:56;;;;;;;6.10;2.45;;;;;;;10.58;100.00;98171.44;4917293;29;20031;-81
2023/12/25 09:30:21;;;;;;;3.88;2.30;;;;;;;10.59;100.00;98160.06;4916792;29;20095;-81
2023/12/25 09:32:46;;;;;;;5.63;3.03;;;;;;;10.39;100.00;98151.06;4914045;29;20032;-81
2023/12/25 09:35:12;;;;;;;3.92;2.20;;;;;;;10.54;100.00;98177.81;4899832;29;20056;-81
2023/12/25 09:37:37;;;;;;;12.10;8.70;;;;;;;10.52;100.00;98184.88;4916642;29;20024;-81
2023/12/25 09:40:04;;;;;;;3.40;1.83;;;;;;;10.55;100.00;98218.50;4916180;29;20060;-81
2023/12/25 09:42:29;;;;;;;7.80;5.35;;;;;;;10.47;100.00;98190.41;4916770;29;20028;-81
2023/12/25 09:44:55;;;;;;;4.72;3.38;;;;;;;10.47;100.00;98205.19;4916525;29;20035;-81
2023/12/25 09:47:20;;;;;;;1.40;1.20;;;;;;;10.20;100.00;98176.66;4916433;29;20111;-81
2023/12/25 09:49:47;;;;;;;3.65;2.42;;;;;;;10.11;100.00;98159.06;4916323;29;20028;-81
2023/12/25 09:52:13;;;;;;;5.00;2.95;;;;;;;10.15;100.00;98181.31;4916549;29;20032;-84
2023/12/25 09:54:39;;;;;;;6.88;4.20;;;;;;;10.22;100.00;98219.84;4916781;29;20036;-84
2023/12/25 09:57:05;;;;;;;4.18;2.20;;;;;;;10.14;100.00;98197.88;4916562;29;20031;-83
2023/12/25 09:59:31;;;;;;;2.97;2.65;;;;;;;10.15;100.00;98191.75;4901124;29;20028;-81
2023/12/25 10:01:57;;;;;;;4.47;2.45;;;;;;;9.85;100.00;98150.44;4900283;29;20084;-81
2023/12/25 10:04:27;;;;;;;3.40;1.73;;;;;;;9.83;100.00;98140.16;4901238;29;20036;-81
2023/12/25 10:06:52;;;;;;;4.75;3.45;;;;;;;10.10;100.00;98179.03;4900212;29;20031;-81
2023/12/25 10:09:18;;;;;;;13.60;9.40;;;;;;;10.12;100.00;98182.38;4899645;29;20044;-82
2023/12/25 10:11:44;;;;;;;10.02;8.30;;;;;;;10.06;100.00;98188.00;4916407;29;20477;-83
2023/12/25 10:14:09;;;;;;;4.60;3.42;;;;;;;10.05;100.00;98201.94;4916699;29;20136;-84
2023/12/25 10:16:35;;;;;;;3.03;1.95;;;;;;;9.98;100.00;98185.91;4916712;29;20119;-84
2023/12/25 10:19:00;;;;;;;3.53;2.08;;;;;;;9.74;100.00;98144.19;4900222;29;20028;-83
2023/12/25 10:21:26;;;;;;;4.07;2.60;;;;;;;9.96;100.00;98190.38;4916129;29;20469;-81
2023/12/25 10:23:51;;;;;;;6.63;5.18;;;;;;;10.00;100.00;98184.06;4916387;29;20039;-82
2023/12/25 10:26:28;;;;;;;3.67;3.08;;;;;;;9.96;100.00;98169.59;4916861;29;20263;-83
2023/12/25 10:29:07;;;;;;;3.47;2.28;;;;;;;10.09;100.00;98186.97;4920348;29;20028;-83
2023/12/25 10:31:32;;;;;;;10.57;8.25;;;;;;;10.00;100.00;98165.84;4920022;29;20080;-83
2023/12/25 10:33:58;;;;;;;8.68;5.85;;;;;;;10.16;100.00;98198.63;4902804;29;20553;-83
2023/12/25 10:36:24;;;;;;;6.88;5.45;;;;;;;10.31;100.00;98223.63;4902640;29;20115;-83
2023/12/25 10:38:50;;;;;;;4.57;3.80;;;;;;;10.31;100.00;98212.38;4902609;29;20064;-83
2023/12/25 10:41:22;;;;;;;4.28;3.33;;;;;;;10.09;100.00;98155.75;4902849;29;20172;-83
2023/12/25 10:43:52;;;;;;;5.95;4.65;;;;;;;10.30;100.00;98195.09;4919651;29;20024;-83
2023/12/25 10:46:26;;;;;;;11.98;10.90;;;;;;;10.40;100.00;98209.97;4919778;29;20032;-82
2023/12/25 10:48:55;;;;;;;2.47;2.28;;;;;;;10.30;100.00;98182.94;4919325;29;20020;-81
2023/12/25 10:51:26;;;;;;;1.63;1.52;;;;;;;10.45;100.00;98212.28;4919332;29;20044;-79
2023/12/25 10:53:52;;;;;;;2.97;2.67;;;;;;;10.43;100.00;98217.56;4919397;29;20028;-80
2023/12/25 10:56:20;;;;;;;5.60;5.00;;;;;;;10.26;100.00;98210.09;4919502;29;20063;-81
2023/12/25 10:58:49;;;;;;;10.98;9.10;;;;;;;10.34;100.00;98233.81;4919420;29;20411;-80
2023/12/25 11:01:19;;;;;;;4.50;4.10;;;;;;;10.36;100.00;98236.31;4919326;29;20039;-80
2023/12/25 11:03:44;;;;;;;9.60;8.27;;;;;;;10.31;100.00;98239.22;4919040;29;20111;-80
2023/12/25 11:06:11;;;;;;;9.23;7.30;;;;;;;10.32;100.00;98227.03;4902117;29;20140;-83
2023/12/25 11:08:37;;;;;;;4.97;3.13;;;;;;;10.33;100.00;98205.31;4902041;29;20107;-82
2023/12/25 11:11:02;;;;;;;10.40;7.57;;;;;;;10.48;100.00;98228.50;4918905;29;20136;-83
2023/12/25 11:13:28;;;;;;;19.00;14.70;;;;;;;10.49;100.00;98209.34;4919230;29;20020;-82
2023/12/25 11:15:54;;;;;;;9.25;7.10;;;;;;;10.51;100.00;98226.63;4918900;29;20378;-82
2023/12/25 11:18:21;;;;;;;14.95;12.45;;;;;;;10.63;100.00;98217.97;4918994;29;20032;-80
2023/12/25 11:21:06;;;;;;;4.25;3.50;;;;;;;10.60;100.00;98211.19;4918709;29;20371;-80
2023/12/25 11:23:42;;;;;;;3.65;2.90;;;;;;;10.77;100.00;98220.44;4902140;29;20043;-80